Time;durP1;ratioP1;P1;durP2;ratioP2;P2;SDS_P1;SDS_P2;PMS_P1;PMS_P2;Temp;Humidity;BMP_temperature;BMP_pressure;BME280_temperature;BME280_humidity;BME280_pressure;Samples;Min_cycle;Max_cycle;Signal;HPM_P1;HPM_P2
2023/07/14 00:01:45;;;;;;;11.83;11.13;;;;;;;15.05;100.00;101644.00;4991113;28;21154;-42
2023/07/14 00:04:16;;;;;;;12.20;11.07;;;;;;;15.03;100.00;101646.03;4988404;28;21223;-43
2023/07/14 00:06:46;;;;;;;11.80;10.70;;;;;;;14.99;100.00;101639.44;4988473;28;20476;-45
2023/07/14 00:09:20;;;;;;;13.00;11.83;;;;;;;14.99;100.00;101639.44;4988768;28;20457;-43
2023/07/14 00:11:48;;;;;;;12.73;11.60;;;;;;;14.94;100.00;101637.34;4988443;28;20454;-45
2023/07/14 00:14:17;;;;;;;11.77;11.00;;;;;;;14.96;100.00;101644.16;4988898;28;20434;-44
2023/07/14 00:16:45;;;;;;;13.27;11.40;;;;;;;14.95;100.00;101630.97;4988418;28;20552;-42
2023/07/14 00:19:15;;;;;;;18.30;12.07;;;;;;;14.93;100.00;101643.78;4988556;28;20442;-43
2023/07/14 00:21:44;;;;;;;12.23;11.43;;;;;;;14.92;100.00;101628.69;4988494;28;20536;-42
2023/07/14 00:24:14;;;;;;;12.80;11.63;;;;;;;14.91;100.00;101629.69;4988782;28;20532;-42
2023/07/14 00:26:45;;;;;;;13.87;12.70;;;;;;;14.88;100.00;101630.09;4987899;28;20565;-42
2023/07/14 00:29:34;;;;;;;13.10;12.10;;;;;;;14.87;100.00;101631.16;4990148;28;20434;-44
2023/07/14 00:32:03;;;;;;;14.17;12.17;;;;;;;14.84;100.00;101627.00;4989426;28;21132;-42
2023/07/14 00:34:31;;;;;;;11.80;10.90;;;;;;;14.82;100.00;101630.91;4988769;28;20433;-42
2023/07/14 00:37:00;;;;;;;11.17;10.37;;;;;;;14.82;100.00;101633.59;4987887;28;20465;-42
2023/07/14 00:39:28;;;;;;;13.80;12.43;;;;;;;14.79;100.00;101629.47;4988503;28;20430;-42
2023/07/14 00:41:56;;;;;;;16.40;11.70;;;;;;;14.80;100.00;101632.97;4988236;28;20473;-42
2023/07/14 00:44:25;;;;;;;12.17;10.83;;;;;;;14.79;100.00;101639.38;4988628;28;20430;-43
2023/07/14 00:46:53;;;;;;;14.60;11.90;;;;;;;14.76;100.00;101637.94;4987875;28;21027;-43
2023/07/14 00:49:29;;;;;;;19.10;12.90;;;;;;;14.76;100.00;101637.09;4988750;28;20426;-43
2023/07/14 00:52:04;;;;;;;13.57;12.47;;;;;;;14.75;100.00;101633.59;4988556;28;20457;-45
2023/07/14 00:54:32;;;;;;;13.67;12.57;;;;;;;14.74;100.00;101640.00;4987839;28;20448;-43
2023/07/14 00:57:01;;;;;;;13.13;12.00;;;;;;;14.73;100.00;101632.97;4988093;28;20871;-43
2023/07/14 00:59:33;;;;;;;13.33;12.40;;;;;;;14.74;100.00;101637.31;4988500;28;20485;-46
2023/07/14 01:02:20;;;;;;;14.00;12.93;;;;;;;14.70;100.00;101638.72;4987563;28;20473;-42
2023/07/14 01:04:52;;;;;;;12.97;11.83;;;;;;;14.69;100.00;101647.00;4988072;28;20423;-45
2023/07/14 01:07:27;;;;;;;13.63;12.43;;;;;;;14.67;100.00;101639.13;4989236;28;20457;-42
2023/07/14 01:09:57;;;;;;;13.60;12.80;;;;;;;14.66;100.00;101633.97;4992461;28;20437;-45
2023/07/14 01:12:28;;;;;;;12.93;12.10;;;;;;;14.61;100.00;101631.88;4991463;28;21047;-43
2023/07/14 01:14:59;;;;;;;13.60;12.63;;;;;;;14.61;100.00;101631.88;4992106;28;20490;-46
2023/07/14 01:17:28;;;;;;;13.13;12.10;;;;;;;14.63;100.00;101634.38;4991297;28;20865;-44
2023/07/14 01:19:59;;;;;;;13.90;12.73;;;;;;;14.63;100.00;101632.53;4991758;28;20792;-43
2023/07/14 01:22:39;;;;;;;14.30;12.83;;;;;;;14.64;100.00;101647.59;4991704;28;20483;-42
2023/07/14 01:25:17;;;;;;;15.93;14.30;;;;;;;14.59;100.00;101641.16;4991213;28;20430;-46
2023/07/14 01:27:47;;;;;;;16.33;14.30;;;;;;;14.56;100.00;101631.66;4991754;28;20437;-43
2023/07/14 01:30:16;;;;;;;14.30;13.30;;;;;;;14.52;100.00;101641.13;4991655;28;20754;-42
2023/07/14 01:32:47;;;;;;;18.07;16.40;;;;;;;14.50;100.00;101640.53;4991215;28;20449;-43
2023/07/14 01:35:18;;;;;;;16.40;14.83;;;;;;;14.49;100.00;101638.84;4991170;28;20484;-42
2023/07/14 01:37:47;;;;;;;15.30;13.60;;;;;;;14.48;100.00;101641.75;4991521;28;20518;-43
2023/07/14 01:40:18;;;;;;;15.83;14.60;;;;;;;14.51;100.00;101652.09;4991216;28;20461;-43
2023/07/14 01:42:50;;;;;;;14.10;13.20;;;;;;;14.52;100.00;101643.00;4991159;28;20476;-42
2023/07/14 01:45:20;;;;;;;15.97;14.53;;;;;;;14.53;100.00;101650.03;4990814;28;20908;-44
2023/07/14 01:47:52;;;;;;;15.00;13.50;;;;;;;14.57;100.00;101640.56;4990903;28;20426;-42
2023/07/14 01:50:25;;;;;;;16.90;15.00;;;;;;;14.60;100.00;101641.00;4992492;28;20423;-44
2023/07/14 01:52:57;;;;;;;15.03;13.83;;;;;;;14.63;100.00;101648.63;4990881;28;20442;-44
2023/07/14 01:55:32;;;;;;;14.63;13.57;;;;;;;14.65;100.00;101648.44;4990489;28;20466;-45
2023/07/14 01:58:08;;;;;;;13.93;13.03;;;;;;;14.64;100.00;101652.13;4991114;28;20838;-44
2023/07/14 02:00:38;;;;;;;15.13;14.03;;;;;;;14.66;100.00;101644.72;4991407;28;20441;-45
2023/07/14 02:03:08;;;;;;;14.07;12.97;;;;;;;14.70;100.00;101651.31;4990788;28;20891;-44
2023/07/14 02:05:39;;;;;;;14.90;13.53;;;;;;;14.68;100.00;101651.53;4992569;28;20450;-42
2023/07/14 02:08:13;;;;;;;14.10;13.10;;;;;;;14.70;100.00;101648.63;4991457;28;20492;-43
2023/07/14 02:10:41;;;;;;;14.73;12.90;;;;;;;14.67;100.00;101652.56;4991109;28;20433;-43
2023/07/14 02:13:12;;;;;;;15.10;13.60;;;;;;;14.65;100.00;101654.63;4990739;28;20510;-47
2023/07/14 02:15:41;;;;;;;14.47;13.30;;;;;;;14.60;100.00;101650.91;4990360;28;20465;-44
2023/07/14 02:18:15;;;;;;;15.90;14.67;;;;;;;14.56;100.00;101650.47;4992799;28;20429;-46
2023/07/14 02:20:47;;;;;;;15.73;14.33;;;;;;;14.56;100.00;101646.94;4990527;28;20430;-48
2023/07/14 02:23:20;;;;;;;15.97;14.67;;;;;;;14.52;100.00;101654.56;4990748;28;20482;-43
2023/07/14 02:25:54;;;;;;;15.30;14.00;;;;;;;14.50;100.00;101658.47;4991025;28;20454;-42
2023/07/14 02:28:23;;;;;;;15.50;14.10;;;;;;;14.46;100.00;101650.00;4990699;28;20444;-45
2023/07/14 02:31:03;;;;;;;15.43;14.33;;;;;;;14.40;100.00;101651.63;4990537;28;20540;-44
2023/07/14 02:33:36;;;;;;;14.23;13.33;;;;;;;14.35;100.00;101648.72;4990645;28;20545;-44
2023/07/14 02:36:14;;;;;;;15.80;14.47;;;;;;;14.32;100.00;101642.88;4990221;28;20528;-42
2023/07/14 02:38:42;;;;;;;15.47;14.27;;;;;;;14.31;100.00;101646.59;4990765;28;20457;-42
2023/07/14 02:41:17;;;;;;;15.90;14.23;;;;;;;14.25;100.00;101645.53;4990812;28;20488;-45
2023/07/14 02:43:50;;;;;;;15.03;13.93;;;;;;;14.23;100.00;101646.75;4990458;28;20475;-43
2023/07/14 02:46:23;;;;;;;15.57;14.37;;;;;;;14.19;100.00;101642.81;4989083;28;20498;-46
2023/07/14 02:48:53;;;;;;;15.17;13.90;;;;;;;14.14;100.00;101646.09;4990506;28;21006;-47
2023/07/14 02:51:21;;;;;;;14.93;13.70;;;;;;;14.10;100.00;101644.00;4990035;28;20469;-46
2023/07/14 02:53:49;;;;;;;16.43;15.13;;;;;;;14.07;100.00;101639.03;4990056;28;20500;-44
2023/07/14 02:56:19;;;;;;;15.73;14.10;;;;;;;14.04;100.00;101640.25;4990018;28;20544;-47
2023/07/14 02:58:49;;;;;;;21.77;15.90;;;;;;;14.02;100.00;101636.13;4991241;28;20434;-44
2023/07/14 03:01:19;;;;;;;15.53;14.30;;;;;;;14.00;100.00;101638.19;4989599;28;20450;-42
2023/07/14 03:03:48;;;;;;;18.20;14.80;;;;;;;13.98;100.00;101638.34;4989532;28;20477;-46
2023/07/14 03:06:18;;;;;;;16.90;14.10;;;;;;;13.96;100.00;101637.72;4989927;28;20461;-45
2023/07/14 03:08:47;;;;;;;17.20;15.60;;;;;;;13.94;100.00;101637.13;4990202;28;20777;-47
2023/07/14 03:11:15;;;;;;;17.30;15.83;;;;;;;13.91;100.00;101634.81;4989871;28;20463;-41
2023/07/14 03:13:43;;;;;;;17.30;15.50;;;;;;;13.91;100.00;101640.19;4990008;28;20430;-43
2023/07/14 03:16:13;;;;;;;18.67;16.90;;;;;;;13.91;100.00;101639.34;4989038;28;20544;-42
2023/07/14 03:18:43;;;;;;;15.97;14.83;;;;;;;13.90;100.00;101637.69;4989725;28;20896;-44
2023/07/14 03:21:11;;;;;;;16.20;15.20;;;;;;;13.92;100.00;101641.81;4989813;28;20430;-43
2023/07/14 03:23:39;;;;;;;18.00;16.33;;;;;;;13.93;100.00;101643.50;4989123;28;20565;-42
2023/07/14 03:26:08;;;;;;;17.07;15.80;;;;;;;13.98;100.00;101638.34;4989317;28;20834;-44
2023/07/14 03:28:37;;;;;;;16.83;15.50;;;;;;;14.02;100.00;101638.78;4989585;28;20492;-43
2023/07/14 03:31:05;;;;;;;17.13;15.50;;;;;;;14.07;100.00;101639.84;4989882;28;20438;-43
2023/07/14 03:33:35;;;;;;;16.10;15.00;;;;;;;14.21;100.00;101641.59;4989427;28;20466;-42
2023/07/14 03:36:03;;;;;;;15.57;14.57;;;;;;;14.29;100.00;101643.28;4989064;28;20458;-43
2023/07/14 03:38:31;;;;;;;15.50;14.50;;;;;;;14.38;100.00;101644.81;4990090;28;20850;-46
2023/07/14 03:40:59;;;;;;;15.50;14.00;;;;;;;14.45;100.00;101650.22;4988886;28;20432;-44
2023/07/14 03:43:26;;;;;;;15.20;14.40;;;;;;;14.57;100.00;101662.88;4988835;28;20995;-44
2023/07/14 03:45:57;;;;;;;14.93;14.20;;;;;;;14.65;100.00;101649.25;4989193;28;20496;-46
2023/07/14 03:48:25;;;;;;;16.97;15.70;;;;;;;14.72;100.00;101655.50;4989575;28;20434;-45
2023/07/14 03:51:00;;;;;;;15.03;14.07;;;;;;;14.80;100.00;101651.78;4989267;28;20473;-45
2023/07/14 03:53:28;;;;;;;15.80;14.70;;;;;;;14.88;100.00;101651.59;4989534;28;20887;-44
2023/07/14 03:55:56;;;;;;;16.53;15.47;;;;;;;14.95;100.00;101644.38;4989090;28;20458;-43
2023/07/14 03:58:23;;;;;;;17.13;15.63;;;;;;;15.01;100.00;101648.13;4989309;28;20518;-48
2023/07/14 04:00:52;;;;;;;16.57;15.37;;;;;;;15.05;100.00;101649.38;4989244;28;20470;-44
2023/07/14 04:03:20;;;;;;;16.03;15.03;;;;;;;15.11;100.00;101653.94;4989515;28;20478;-46
2023/07/14 04:05:48;;;;;;;16.37;15.23;;;;;;;15.15;100.00;101647.94;4988641;28;20840;-43
2023/07/14 04:08:17;;;;;;;17.30;16.20;;;;;;;15.17;100.00;101650.44;4989156;28;20430;-44
2023/07/14 04:10:45;;;;;;;17.70;16.20;;;;;;;15.21;100.00;101652.47;4989118;28;20437;-42
2023/07/14 04:13:13;;;;;;;16.00;15.07;;;;;;;15.23;100.00;101647.72;4988571;28;21070;-44
2023/07/14 04:15:41;;;;;;;16.17;14.87;;;;;;;15.31;100.00;101644.88;4988559;28;20541;-44
2023/07/14 04:18:09;;;;;;;17.33;16.13;;;;;;;15.36;100.00;101638.84;4988933;28;20419;-45
2023/07/14 04:20:36;;;;;;;15.53;14.70;;;;;;;15.41;100.00;101642.56;4988903;28;20428;-41
2023/07/14 04:23:05;;;;;;;16.40;15.20;;;;;;;15.50;100.00;101645.94;4988870;28;20460;-47
2023/07/14 04:25:36;;;;;;;17.00;16.00;;;;;;;15.63;100.00;101643.22;4988385;28;20488;-43
2023/07/14 04:28:04;;;;;;;18.17;16.70;;;;;;;15.74;100.00;101647.16;4988804;28;20441;-45
2023/07/14 04:30:32;;;;;;;16.67;15.60;;;;;;;15.89;100.00;101648.56;4988454;28;20544;-46
2023/07/14 04:32:59;;;;;;;16.53;15.43;;;;;;;16.37;100.00;101650.94;4988623;28;20453;-42
2023/07/14 04:35:27;;;;;;;16.93;15.93;;;;;;;17.46;100.00;101652.44;4988423;28;20461;-43
2023/07/14 04:37:56;;;;;;;16.47;15.40;;;;;;;18.62;100.00;101658.75;4988695;28;20430;-43
2023/07/14 04:40:23;;;;;;;16.40;15.60;;;;;;;19.66;100.00;101649.31;4988679;28;20529;-44
2023/07/14 04:43:04;;;;;;;15.40;14.60;;;;;;;20.77;100.00;101640.91;4992705;28;20536;-43
2023/07/14 04:45:32;;;;;;;16.00;14.93;;;;;;;21.61;100.00;101631.03;4991283;28;20515;-43
2023/07/14 04:48:00;;;;;;;14.73;13.70;;;;;;;22.44;100.00;101623.50;4993127;28;20957;-43
2023/07/14 04:50:28;;;;;;;14.60;14.00;;;;;;;23.25;100.00;101618.13;4992249;28;20437;-43
2023/07/14 04:52:56;;;;;;;14.67;13.70;;;;;;;23.86;100.00;101616.69;4992171;28;20484;-45
2023/07/14 04:55:24;;;;;;;15.10;14.30;;;;;;;24.54;100.00;101616.50;4992278;28;21070;-46
2023/07/14 04:57:52;;;;;;;13.90;13.10;;;;;;;25.16;100.00;101601.88;4993132;28;20439;-43
2023/07/14 05:00:22;;;;;;;13.37;12.67;;;;;;;25.52;100.00;101606.28;4992296;28;20441;-45
2023/07/14 05:02:50;;;;;;;12.53;11.93;;;;;;;25.82;100.00;101603.50;4992488;28;20539;-47
2023/07/14 05:05:21;;;;;;;12.40;11.60;;;;;;;26.01;100.00;101611.91;4992049;28;20485;-46
2023/07/14 05:07:49;;;;;;;12.43;11.53;;;;;;;26.51;95.46;101607.34;4992349;28;20473;-48
2023/07/14 05:10:17;;;;;;;10.87;10.10;;;;;;;27.02;95.04;101602.41;4992276;28;20465;-42
2023/07/14 05:12:46;;;;;;;8.67;7.87;;;;;;;27.42;89.30;101611.13;4991859;28;20534;-45
2023/07/14 05:15:14;;;;;;;8.53;7.70;;;;;;;27.72;90.24;101603.69;4992009;28;20437;-43
2023/07/14 05:17:44;;;;;;;8.43;7.80;;;;;;;28.09;82.72;101611.28;4991923;28;21104;-44
2023/07/14 05:20:14;;;;;;;7.90;7.30;;;;;;;27.80;75.68;101608.56;4992436;28;20440;-44
2023/07/14 05:22:43;;;;;;;8.30;7.77;;;;;;;28.24;77.99;101613.84;4992343;28;20536;-43
2023/07/14 05:25:12;;;;;;;6.87;6.47;;;;;;;28.62;76.17;101620.19;4991353;28;20836;-43
2023/07/14 05:27:43;;;;;;;7.90;6.80;;;;;;;28.74;71.04;101620.59;4992008;28;20441;-43
2023/07/14 05:30:14;;;;;;;7.53;6.83;;;;;;;29.08;71.65;101615.69;4991747;28;20441;-43
2023/07/14 05:32:45;;;;;;;7.00;6.50;;;;;;;29.50;68.71;101611.97;4992248;28;20469;-44
2023/07/14 05:35:14;;;;;;;6.90;6.23;;;;;;;29.86;67.25;101610.25;4992061;28;20191;-43
2023/07/14 05:37:43;;;;;;;6.37;5.93;;;;;;;29.91;65.78;101599.13;4992429;28;20198;-45
2023/07/14 05:40:12;;;;;;;7.20;6.60;;;;;;;30.41;65.52;101601.97;4992441;28;20206;-43
2023/07/14 05:42:41;;;;;;;6.87;6.27;;;;;;;30.53;62.15;101596.75;4991595;28;20459;-44
2023/07/14 05:45:10;;;;;;;5.77;5.50;;;;;;;30.52;55.82;101600.63;4982139;28;20247;-42
2023/07/14 05:47:42;;;;;;;6.57;6.10;;;;;;;30.65;60.30;101605.28;4972561;28;20210;-44
2023/07/14 05:50:13;;;;;;;6.33;5.83;;;;;;;31.12;60.64;101607.47;4971574;28;20279;-43
2023/07/14 05:52:41;;;;;;;6.67;6.17;;;;;;;31.44;57.10;101606.41;4971613;28;20219;-44
2023/07/14 05:55:09;;;;;;;6.90;6.37;;;;;;;31.77;57.38;101609.69;4970911;28;20274;-46
2023/07/14 05:57:37;;;;;;;6.30;5.90;;;;;;;31.79;55.82;101604.66;4972547;28;20278;-43
2023/07/14 06:00:12;;;;;;;6.93;6.47;;;;;;;31.99;53.40;101603.28;4971987;28;20199;-44
2023/07/14 06:02:41;;;;;;;6.38;5.88;;;;;;;32.11;53.72;101603.50;4972154;28;20228;-42
2023/07/14 06:05:12;;;;;;;5.90;5.40;;;;;;;31.83;51.52;101605.66;4971942;28;20226;-42
2023/07/14 06:07:42;;;;;;;5.50;5.10;;;;;;;31.94;51.01;101611.69;4972538;28;20198;-46
2023/07/14 06:10:12;;;;;;;6.55;6.03;;;;;;;31.49;48.47;101605.47;4971268;28;20316;-46
2023/07/14 06:12:39;;;;;;;6.65;5.68;;;;;;;31.84;52.55;101610.00;4971626;28;20222;-42
2023/07/14 06:15:08;;;;;;;6.68;5.97;;;;;;;32.21;51.85;101603.19;4971279;28;20203;-45
2023/07/14 06:17:36;;;;;;;5.65;5.22;;;;;;;32.49;50.05;101603.75;4971985;28;20195;-47
2023/07/14 06:20:05;;;;;;;5.20;4.90;;;;;;;32.73;47.69;101604.94;4972607;28;20202;-47
2023/07/14 06:22:34;;;;;;;5.20;4.93;;;;;;;32.62;49.18;101606.38;4971901;28;20219;-45
2023/07/14 06:25:03;;;;;;;7.00;5.43;;;;;;;32.63;47.82;101604.44;4970505;28;20572;-43
2023/07/14 06:27:33;;;;;;;6.35;4.43;;;;;;;32.64;47.73;101601.38;4970819;28;20202;-47
2023/07/14 06:30:02;;;;;;;6.82;5.38;;;;;;;32.52;46.47;101605.88;4970474;28;20303;-46
2023/07/14 06:32:30;;;;;;;4.75;4.35;;;;;;;32.62;48.98;101595.31;4971185;28;20219;-43
2023/07/14 06:34:57;;;;;;;5.78;5.28;;;;;;;32.44;47.45;101593.66;4971890;28;20195;-44
2023/07/14 06:37:26;;;;;;;5.18;4.60;;;;;;;32.60;47.23;101600.38;4970524;28;20231;-43
2023/07/14 06:39:55;;;;;;;4.85;3.90;;;;;;;33.02;46.11;101595.16;4971668;28;20199;-44
2023/07/14 06:42:23;;;;;;;4.18;3.85;;;;;;;33.22;47.05;101594.50;4971038;28;20225;-46
2023/07/14 06:44:51;;;;;;;5.75;4.20;;;;;;;33.20;44.38;101597.63;4970679;28;20993;-43
2023/07/14 06:47:20;;;;;;;4.30;4.00;;;;;;;33.12;46.56;101595.69;4970387;28;20222;-44
2023/07/14 06:49:49;;;;;;;4.07;3.75;;;;;;;33.26;46.51;101595.47;4971150;28;20593;-44
2023/07/14 06:52:17;;;;;;;6.72;4.38;;;;;;;33.26;44.82;101590.78;4971337;28;20281;-42
2023/07/14 06:54:45;;;;;;;4.22;3.70;;;;;;;32.06;46.13;101592.59;4972296;28;20877;-43
2023/07/14 06:57:14;;;;;;;4.05;3.50;;;;;;;31.85;46.44;101603.38;4971838;28;20306;-44
2023/07/14 06:59:42;;;;;;;4.00;3.70;;;;;;;32.13;47.29;101602.06;4972535;28;20665;-44
2023/07/14 07:02:11;;;;;;;4.03;3.72;;;;;;;32.51;47.72;101607.81;4972655;28;20219;-44
2023/07/14 07:04:39;;;;;;;5.37;4.00;;;;;;;32.65;45.65;101599.38;4972057;28;20199;-44
2023/07/14 07:07:07;;;;;;;5.40;3.70;;;;;;;32.08;46.54;101604.94;4970368;28;20637;-43
2023/07/14 07:09:36;;;;;;;6.45;4.10;;;;;;;31.04;47.18;101601.91;4973023;28;20203;-44
2023/07/14 07:12:05;;;;;;;5.23;4.37;;;;;;;31.41;45.14;101601.50;4971901;28;20575;-46
2023/07/14 07:14:34;;;;;;;7.28;4.35;;;;;;;31.52;46.36;101599.31;4971415;28;20204;-44
2023/07/14 07:17:02;;;;;;;5.03;3.78;;;;;;;32.03;47.34;101585.78;4970287;28;20273;-44
2023/07/14 07:19:33;;;;;;;4.30;3.97;;;;;;;31.62;46.62;101597.13;4972752;28;20226;-43
2023/07/14 07:22:00;;;;;;;4.93;4.33;;;;;;;31.48;47.47;101590.88;4971584;28;20341;-43
2023/07/14 07:24:29;;;;;;;4.67;3.63;;;;;;;30.61;48.21;101596.84;4971045;28;20198;-42
2023/07/14 07:26:56;;;;;;;4.30;3.90;;;;;;;30.18;49.26;101590.88;4971717;28;20245;-44
2023/07/14 07:29:24;;;;;;;5.90;3.93;;;;;;;30.15;49.67;101597.00;4971385;28;20655;-44
2023/07/14 07:31:54;;;;;;;5.37;3.73;;;;;;;29.88;49.99;101586.00;4971981;28;20219;-42
2023/07/14 07:34:22;;;;;;;3.60;3.40;;;;;;;29.38;51.03;101595.16;4973060;28;20771;-44
2023/07/14 07:36:50;;;;;;;4.83;3.70;;;;;;;29.03;51.64;101594.59;4974538;28;20237;-41
2023/07/14 07:39:18;;;;;;;5.50;3.97;;;;;;;28.92;52.38;101592.31;4985742;28;20434;-44
2023/07/14 07:41:46;;;;;;;7.83;4.70;;;;;;;28.49;53.48;101597.84;4978412;28;20449;-43
2023/07/14 07:44:14;;;;;;;5.13;4.30;;;;;;;27.97;53.44;101601.50;4981840;28;20448;-45
2023/07/14 07:46:43;;;;;;;4.33;3.90;;;;;;;27.77;53.77;101598.19;4988234;28;20528;-43
2023/07/14 07:49:12;;;;;;;8.33;5.07;;;;;;;27.46;53.55;101594.94;4966677;28;20458;-42
2023/07/14 07:51:40;;;;;;;5.70;4.50;;;;;;;27.12;54.95;101591.38;4988721;28;20516;-42
2023/07/14 07:54:07;;;;;;;5.07;4.70;;;;;;;27.19;56.83;101597.31;4990208;28;20472;-42
2023/07/14 07:56:35;;;;;;;4.10;3.77;;;;;;;27.41;57.05;101594.94;4977847;28;20431;-44
2023/07/14 07:59:03;;;;;;;4.73;4.23;;;;;;;27.31;56.17;101593.13;4970566;28;20475;-43
2023/07/14 08:01:31;;;;;;;4.30;3.90;;;;;;;27.35;56.68;101583.22;4969724;28;21184;-42
2023/07/14 08:03:59;;;;;;;4.23;3.83;;;;;;;27.43;56.89;101590.84;4970550;28;20690;-47
2023/07/14 08:06:28;;;;;;;4.37;4.07;;;;;;;27.48;55.31;101593.53;4970711;28;20556;-45
2023/07/14 08:08:56;;;;;;;3.90;3.70;;;;;;;27.76;56.12;101583.66;4969727;28;20470;-42
2023/07/14 08:11:24;;;;;;;4.37;3.90;;;;;;;27.93;55.89;101585.94;4969952;28;20487;-43
2023/07/14 08:13:51;;;;;;;5.43;4.10;;;;;;;28.21;55.06;101587.00;4969629;28;20489;-47
2023/07/14 08:16:19;;;;;;;4.07;3.87;;;;;;;28.14;54.09;101583.78;4968962;28;20478;-42
2023/07/14 08:18:47;;;;;;;5.00;4.37;;;;;;;28.17;53.08;101591.44;4969492;28;20517;-45
2023/07/14 08:21:15;;;;;;;5.70;4.40;;;;;;;28.21;54.33;101587.81;4969335;28;20494;-45
2023/07/14 08:23:44;;;;;;;5.67;4.27;;;;;;;28.45;54.13;101591.34;4969028;28;20470;-43
2023/07/14 08:26:12;;;;;;;3.93;3.63;;;;;;;28.36;52.20;101592.28;4970398;28;20528;-42
2023/07/14 08:28:41;;;;;;;4.03;3.57;;;;;;;28.28;53.01;101588.28;4969162;28;20438;-42
2023/07/14 08:31:12;;;;;;;6.37;4.47;;;;;;;28.21;52.72;101587.00;4972130;28;21057;-44
2023/07/14 08:33:43;;;;;;;6.90;3.80;;;;;;;27.95;52.36;101586.47;4990313;28;20426;-41
2023/07/14 08:36:12;;;;;;;4.97;3.97;;;;;;;28.08;53.14;101590.44;4990643;28;20441;-41
2023/07/14 08:38:41;;;;;;;5.27;3.83;;;;;;;28.08;53.46;101594.00;4989236;28;20440;-45
2023/07/14 08:41:21;;;;;;;5.07;4.50;;;;;;;27.82;50.79;101587.97;4988712;28;20828;-42
2023/07/14 08:44:02;;;;;;;3.77;3.57;;;;;;;27.70;50.91;101584.81;4990195;28;20445;-45
2023/07/14 08:46:41;;;;;;;5.57;4.03;;;;;;;27.65;52.16;101582.16;4989740;28;20519;-44
2023/07/14 08:49:20;;;;;;;4.13;3.83;;;;;;;27.42;52.89;101581.00;4988788;28;20515;-44
2023/07/14 08:51:53;;;;;;;6.73;3.87;;;;;;;27.73;53.39;101581.50;4989088;28;20493;-43
2023/07/14 08:54:26;;;;;;;4.63;3.90;;;;;;;27.70;52.37;101593.03;4989395;28;20460;-42
2023/07/14 08:56:55;;;;;;;4.83;4.33;;;;;;;27.81;52.76;101591.81;4989620;28;20429;-42
2023/07/14 08:59:31;;;;;;;4.87;4.37;;;;;;;27.70;51.79;101601.25;4989031;28;20489;-42
2023/07/14 09:02:02;;;;;;;8.00;4.20;;;;;;;27.66;52.34;101602.94;4988116;28;20484;-42
2023/07/14 09:04:35;;;;;;;5.53;4.40;;;;;;;27.74;51.87;101588.63;4989659;28;21086;-42
2023/07/14 09:07:03;;;;;;;4.33;4.07;;;;;;;27.88;51.88;101595.03;4989452;28;20476;-44
2023/07/14 09:09:33;;;;;;;5.13;3.93;;;;;;;27.96;52.12;101596.31;4989799;28;20465;-42
2023/07/14 09:12:15;;;;;;;4.60;4.23;;;;;;;28.00;52.04;101587.22;4987374;28;20496;-42
2023/07/14 09:14:56;;;;;;;4.13;3.90;;;;;;;27.86;52.10;101588.22;4990026;28;20495;-42
2023/07/14 09:17:47;;;;;;;4.83;3.60;;;;;;;27.93;50.41;101588.66;4989529;28;20461;-45
2023/07/14 09:20:33;;;;;;;7.33;3.90;;;;;;;28.20;50.79;101586.19;4985549;28;20465;-44
2023/07/14 09:23:14;;;;;;;4.60;3.70;;;;;;;28.54;51.60;101580.50;4988776;28;20536;-42
2023/07/14 09:25:50;;;;;;;5.40;4.77;;;;;;;28.73;50.82;101586.84;4989060;28;20815;-42
2023/07/14 09:28:24;;;;;;;5.23;4.70;;;;;;;28.56;51.59;101586.50;4988188;28;20440;-43
2023/07/14 09:30:52;;;;;;;4.20;3.83;;;;;;;28.55;52.38;101588.44;4992311;28;20446;-42
2023/07/14 09:33:21;;;;;;;4.60;4.30;;;;;;;28.50;51.86;101583.03;4972233;28;20497;-42
2023/07/14 09:35:51;;;;;;;5.23;4.67;;;;;;;28.34;52.54;101578.88;4974111;28;20442;-43
2023/07/14 09:38:23;;;;;;;5.07;4.60;;;;;;;28.22;52.53;101581.22;4973815;28;20434;-42
2023/07/14 09:40:59;;;;;;;5.17;4.80;;;;;;;27.89;51.31;101574.75;4972565;28;20521;-42
2023/07/14 09:43:28;;;;;;;6.43;4.97;;;;;;;27.74;52.26;101574.94;4973479;28;20469;-42
2023/07/14 09:45:57;;;;;;;5.00;4.50;;;;;;;27.72;52.94;101585.34;4973630;28;20526;-42
2023/07/14 09:48:31;;;;;;;4.40;4.00;;;;;;;28.08;54.05;101574.81;4972962;28;20478;-42
2023/07/14 09:51:05;;;;;;;4.50;4.20;;;;;;;28.29;53.42;101578.09;4973346;28;20426;-41
2023/07/14 09:53:37;;;;;;;6.57;4.90;;;;;;;28.38;52.40;101568.94;4973719;28;20435;-43
2023/07/14 09:56:07;;;;;;;5.50;4.60;;;;;;;28.24;51.24;101567.22;4973665;28;20438;-42
2023/07/14 09:58:36;;;;;;;7.70;4.90;;;;;;;28.02;52.13;101562.25;4972083;28;20514;-42
2023/07/14 10:01:06;;;;;;;5.97;4.33;;;;;;;27.82;52.61;101552.34;4972984;28;20438;-43
2023/07/14 10:03:42;;;;;;;5.10;4.63;;;;;;;27.87;52.17;101556.94;4973230;28;20602;-45
2023/07/14 10:06:16;;;;;;;4.90;4.33;;;;;;;27.82;52.25;101551.53;4972727;28;20468;-42
2023/07/14 10:08:47;;;;;;;7.83;4.33;;;;;;;27.71;53.45;101553.59;4972423;28;20463;-42
2023/07/14 10:11:23;;;;;;;5.33;4.77;;;;;;;27.49;53.71;101556.00;4971942;28;20920;-43
2023/07/14 10:13:57;;;;;;;4.83;4.47;;;;;;;27.66;54.95;101553.63;4972671;28;20460;-44
2023/07/14 10:16:26;;;;;;;4.93;4.40;;;;;;;27.69;54.37;101550.28;4972451;28;20434;-42
2023/07/14 10:18:57;;;;;;;8.87;5.07;;;;;;;27.54;53.94;101546.94;4972058;28;20521;-42
2023/07/14 10:21:31;;;;;;;4.67;4.20;;;;;;;27.58;54.76;101551.53;4971659;28;20450;-43
2023/07/14 10:24:05;;;;;;;5.10;4.57;;;;;;;27.31;54.80;101548.47;4973707;28;20467;-42
2023/07/14 10:26:35;;;;;;;5.70;4.60;;;;;;;27.05;56.34;101541.59;4973432;28;20438;-42
2023/07/14 10:29:07;;;;;;;5.23;4.83;;;;;;;26.82;58.20;101541.22;4971986;28;21004;-42
2023/07/14 10:31:38;;;;;;;4.43;4.07;;;;;;;26.77;58.35;101541.25;4977824;28;20442;-45
2023/07/14 10:34:42;;;;;;;4.87;4.57;;;;;;;26.75;58.97;101545.38;4992959;28;20425;-42
2023/07/14 10:37:18;;;;;;;4.00;3.80;;;;;;;27.03;58.92;101539.13;4992040;28;20429;-43
2023/07/14 10:39:51;;;;;;;6.33;5.20;;;;;;;27.15;58.07;101542.31;4990107;28;20543;-43
2023/07/14 10:42:23;;;;;;;7.73;4.60;;;;;;;27.37;57.57;101544.59;4973095;28;20453;-44
2023/07/14 10:44:53;;;;;;;4.83;4.40;;;;;;;27.52;56.08;101538.16;4973318;28;20521;-42
2023/07/14 10:47:25;;;;;;;5.97;5.47;;;;;;;27.79;54.92;101539.22;4972670;28;20532;-42
2023/07/14 10:49:58;;;;;;;5.77;4.10;;;;;;;28.25;54.35;101522.22;4972418;28;20478;-45
2023/07/14 10:52:31;;;;;;;5.67;5.17;;;;;;;28.88;54.17;101519.91;4972812;28;20541;-45
2023/07/14 10:55:05;;;;;;;5.50;5.00;;;;;;;29.03;52.00;101520.44;4972829;28;20444;-42
2023/07/14 10:57:41;;;;;;;5.70;5.23;;;;;;;28.77;51.75;101512.94;4972590;28;20433;-42
2023/07/14 11:00:23;;;;;;;6.40;5.00;;;;;;;28.58;53.09;101513.75;4972023;28;20497;-45
2023/07/14 11:02:59;;;;;;;4.43;4.03;;;;;;;28.97;53.64;101515.38;4972603;28;20537;-44
2023/07/14 11:05:29;;;;;;;4.80;4.30;;;;;;;28.90;51.13;101510.25;4973030;28;20441;-43
2023/07/14 11:07:57;;;;;;;7.00;5.33;;;;;;;28.46;52.85;101513.38;4972567;28;20521;-42
2023/07/14 11:10:34;;;;;;;5.03;4.67;;;;;;;27.89;51.70;101506.22;4971974;28;20501;-45
2023/07/14 11:13:09;;;;;;;5.33;4.20;;;;;;;27.31;55.20;101510.13;4972544;28;20452;-44
2023/07/14 11:15:46;;;;;;;7.27;6.00;;;;;;;27.15;55.31;101508.66;4987950;28;20561;-42
2023/07/14 11:18:26;;;;;;;5.67;5.27;;;;;;;27.52;54.03;101511.59;4971861;28;20429;-41
2023/07/14 11:21:29;;;;;;;5.93;5.10;;;;;;;28.01;53.89;101505.78;4971885;28;20533;-42
2023/07/14 11:24:10;;;;;;;4.03;3.83;;;;;;;28.46;52.93;101509.84;4970710;28;20473;-42
2023/07/14 11:26:46;;;;;;;5.77;4.20;;;;;;;28.86;52.05;101503.72;4972488;28;20442;-42
2023/07/14 11:29:19;;;;;;;5.07;4.57;;;;;;;28.89;51.49;101491.31;4971082;28;20549;-44
2023/07/14 11:31:52;;;;;;;4.60;4.27;;;;;;;28.99;50.83;101494.72;4979458;28;20832;-46